Time;durP1;ratioP1;P1;durP2;ratioP2;P2;SDS_P1;SDS_P2;PMS_P1;PMS_P2;Temp;Humidity;BMP_temperature;BMP_pressure;BME280_temperature;BME280_humidity;BME280_pressure;Samples;Min_cycle;Max_cycle;Signal;HPM_P1;HPM_P2
2022/10/17 00:00:52;;;;;;;15.93;3.95;;;;;;;13.50;64.92;101655.59;4968990;28;119615;-75
2022/10/17 00:03:18;;;;;;;17.63;4.10;;;;;;;13.42;65.53;101661.78;4951299;28;119687;-73
2022/10/17 00:05:46;;;;;;;20.70;4.00;;;;;;;13.40;65.03;101656.72;4970913;28;120265;-73
2022/10/17 00:08:14;;;;;;;18.05;3.55;;;;;;;13.36;65.65;101664.34;4949874;28;120041;-73
2022/10/17 00:10:40;;;;;;;15.32;3.90;;;;;;;13.35;65.82;101654.53;4952885;28;119474;-73
2022/10/17 00:13:07;;;;;;;17.17;3.80;;;;;;;13.32;65.63;101654.66;4980811;28;119378;-73
2022/10/17 00:15:33;;;;;;;15.63;3.60;;;;;;;13.29;65.52;101656.34;4955240;28;119774;-73
2022/10/17 00:17:59;;;;;;;16.23;3.90;;;;;;;13.23;65.15;101646.31;4978215;28;119970;-74
2022/10/17 00:20:24;;;;;;;20.77;4.50;;;;;;;13.17;65.54;101646.88;4968329;28;119620;-75
2022/10/17 00:22:51;;;;;;;16.73;3.65;;;;;;;13.18;65.73;101647.66;4966902;28;120435;-75
2022/10/17 00:25:19;;;;;;;14.98;3.60;;;;;;;13.15;65.46;101645.75;4965203;28;120607;-75
2022/10/17 00:27:45;;;;;;;17.67;4.10;;;;;;;13.14;65.87;101644.22;4983260;28;119559;-75
2022/10/17 00:30:16;;;;;;;16.35;3.45;;;;;;;13.09;65.56;101639.28;4954258;28;121841;-73
2022/10/17 00:32:41;;;;;;;15.80;3.95;;;;;;;13.09;65.10;101645.56;4950818;28;119946;-74
2022/10/17 00:35:08;;;;;;;15.10;3.63;;;;;;;13.05;65.15;101635.88;4956980;28;119832;-75
2022/10/17 00:37:34;;;;;;;19.67;3.90;;;;;;;13.02;65.32;101642.28;4967908;28;120274;-75
2022/10/17 00:39:59;;;;;;;17.23;3.90;;;;;;;12.96;65.23;101627.50;4949695;28;119732;-74
2022/10/17 00:42:26;;;;;;;17.38;4.00;;;;;;;12.98;66.58;101633.31;4969936;28;120743;-75
2022/10/17 00:45:00;;;;;;;17.10;4.20;;;;;;;12.98;65.96;101625.06;4972547;28;120066;-75
2022/10/17 00:47:26;;;;;;;15.63;3.72;;;;;;;12.98;65.93;101622.31;4950031;28;119470;-74
2022/10/17 00:49:55;;;;;;;16.98;3.88;;;;;;;12.89;66.05;101600.97;4969882;28;119772;-74
2022/10/17 00:52:25;;;;;;;17.23;3.83;;;;;;;12.96;65.66;101613.72;4948830;28;119545;-74
2022/10/17 00:55:01;;;;;;;17.27;4.20;;;;;;;12.94;65.83;101602.38;4965911;28;119785;-74
2022/10/17 00:57:30;;;;;;;14.75;4.30;;;;;;;12.88;66.02;101594.69;4969323;28;119649;-75
2022/10/17 00:59:58;;;;;;;17.13;4.57;;;;;;;12.88;66.04;101605.72;4956341;28;119389;-74
2022/10/17 01:02:24;;;;;;;19.17;4.77;;;;;;;12.86;65.68;101605.38;4953540;28;119910;-75
2022/10/17 01:04:53;;;;;;;18.98;4.32;;;;;;;12.87;66.10;101609.69;4945724;28;119891;-75
2022/10/17 01:07:19;;;;;;;18.77;4.80;;;;;;;12.86;65.91;101619.16;4967565;28;119621;-75
2022/10/17 01:09:46;;;;;;;17.08;4.30;;;;;;;12.85;66.02;101612.09;4954658;28;119929;-74
2022/10/17 01:12:32;;;;;;;16.13;4.03;;;;;;;12.84;65.96;101615.31;4973799;28;119413;-74
2022/10/17 01:15:25;;;;;;;15.68;4.30;;;;;;;12.82;65.81;101607.50;4951403;28;119990;-75
2022/10/17 01:17:50;;;;;;;21.00;4.80;;;;;;;12.84;66.50;101598.78;4970678;28;119729;-74
2022/10/17 01:20:25;;;;;;;17.02;4.00;;;;;;;12.85;66.17;101605.84;4962219;28;119623;-74
2022/10/17 01:23:29;;;;;;;14.80;3.70;;;;;;;12.84;65.46;101613.31;4959217;28;120069;-75
2022/10/17 01:26:36;;;;;;;15.68;3.90;;;;;;;12.81;65.09;101618.94;4943340;28;119842;-74
2022/10/17 01:29:15;;;;;;;14.88;4.07;;;;;;;12.78;65.95;101617.84;4950631;28;119742;-75
2022/10/17 01:32:05;;;;;;;15.73;3.92;;;;;;;12.77;65.58;101619.03;4955857;28;119599;-75
2022/10/17 01:34:45;;;;;;;16.08;4.20;;;;;;;12.75;65.50;101626.97;4953892;28;119591;-75
2022/10/17 01:37:32;;;;;;;15.95;4.65;;;;;;;12.73;65.48;101628.63;4961831;28;119455;-75
2022/10/17 01:40:03;;;;;;;16.70;4.25;;;;;;;12.70;65.88;101638.53;4963531;28;119326;-74
2022/10/17 01:42:38;;;;;;;16.63;4.13;;;;;;;12.68;65.61;101637.44;4967654;28;120123;-74
2022/10/17 01:45:12;;;;;;;13.43;4.03;;;;;;;12.65;65.62;101630.84;4950600;28;120041;-74
2022/10/17 01:47:40;;;;;;;17.70;4.43;;;;;;;12.65;66.25;101625.34;4950517;28;119805;-74
2022/10/17 01:50:30;;;;;;;14.32;3.92;;;;;;;12.68;66.09;101632.72;4967080;28;119397;-74
2022/10/17 01:53:02;;;;;;;17.58;4.43;;;;;;;12.69;66.40;101631.50;4951034;28;119476;-74
2022/10/17 01:55:32;;;;;;;17.15;4.57;;;;;;;12.69;66.79;101617.72;4956673;28;120132;-74
2022/10/17 01:58:12;;;;;;;13.97;3.87;;;;;;;12.72;66.17;101610.56;4962674;28;119849;-74
2022/10/17 02:00:41;;;;;;;14.85;4.13;;;;;;;12.70;66.21;101608.25;4931125;28;120008;-74
2022/10/17 02:03:24;;;;;;;16.70;5.13;;;;;;;12.77;67.39;101608.03;4942633;28;119467;-74
2022/10/17 02:05:50;;;;;;;16.60;4.82;;;;;;;12.82;66.96;101613.00;4953498;28;119849;-74
2022/10/17 02:08:40;;;;;;;17.63;4.72;;;;;;;12.88;66.50;101616.72;4967488;28;119772;-74
2022/10/17 02:11:13;;;;;;;17.02;4.28;;;;;;;12.87;66.32;101606.91;4939333;28;119836;-74
2022/10/17 02:13:57;;;;;;;17.30;4.65;;;;;;;12.91;66.18;101599.31;4968417;28;119533;-74
2022/10/17 02:16:38;;;;;;;14.13;3.90;;;;;;;12.92;66.53;101591.81;4947283;28;119903;-74
2022/10/17 02:19:07;;;;;;;14.70;5.03;;;;;;;12.98;67.55;101597.53;4958072;28;119390;-74
2022/10/17 02:22:00;;;;;;;18.80;5.53;;;;;;;13.05;67.14;101591.81;4982338;28;119830;-73
2022/10/17 02:24:57;;;;;;;16.75;4.40;;;;;;;13.08;66.31;101582.63;4973210;28;119689;-74
2022/10/17 02:27:39;;;;;;;20.40;5.00;;;;;;;13.09;66.34;101581.44;4944549;28;119429;-74
2022/10/17 02:30:22;;;;;;;18.02;4.88;;;;;;;13.12;66.56;101575.78;4936065;28;121916;-74
2022/10/17 02:33:03;;;;;;;17.83;5.30;;;;;;;13.16;67.28;101581.19;4957608;28;120180;-74
2022/10/17 02:35:35;;;;;;;19.85;5.47;;;;;;;13.19;66.92;101577.56;4955953;28;119633;-73
2022/10/17 02:38:03;;;;;;;15.90;4.90;;;;;;;13.24;67.00;101576.97;4952836;28;119319;-74
2022/10/17 02:40:30;;;;;;;20.42;6.03;;;;;;;13.30;67.93;101575.22;4953357;28;119879;-74
2022/10/17 02:42:58;;;;;;;23.57;7.40;;;;;;;13.38;68.19;101564.69;4967163;28;119775;-74
2022/10/17 02:45:27;;;;;;;23.33;7.57;;;;;;;13.47;68.62;101575.78;4952530;28;119755;-74
2022/10/17 02:48:15;;;;;;;28.75;8.05;;;;;;;13.57;68.78;101565.59;4963316;28;119466;-73
2022/10/17 02:51:06;;;;;;;26.52;7.55;;;;;;;13.69;69.03;101562.75;4960508;28;119604;-73
2022/10/17 02:53:57;;;;;;;22.98;6.70;;;;;;;13.74;68.21;101551.16;4938490;28;119721;-71
2022/10/17 02:56:26;;;;;;;21.08;6.60;;;;;;;13.79;67.95;101549.81;4969407;28;119937;-73
2022/10/17 02:58:58;;;;;;;25.95;6.57;;;;;;;13.85;67.24;101553.50;4979503;28;120001;-72
2022/10/17 03:01:25;;;;;;;23.10;6.55;;;;;;;13.88;67.28;101551.84;4937754;28;119660;-73
2022/10/17 03:04:03;;;;;;;27.27;6.77;;;;;;;13.90;67.35;101561.19;4933093;28;121632;-73
2022/10/17 03:06:29;;;;;;;20.05;6.03;;;;;;;13.88;67.50;101555.34;4968840;28;119975;-73
2022/10/17 03:08:57;;;;;;;21.10;5.90;;;;;;;13.96;68.25;101564.91;4974138;28;119362;-73
2022/10/17 03:11:23;;;;;;;25.90;6.33;;;;;;;14.01;68.72;101556.06;4952687;28;119695;-71
2022/10/17 03:13:49;;;;;;;21.30;6.30;;;;;;;14.09;68.99;101557.31;4941810;28;119797;-73
2022/10/17 03:16:15;;;;;;;21.70;6.22;;;;;;;14.16;68.00;101544.44;4959318;28;119812;-73
2022/10/17 03:18:42;;;;;;;22.60;5.83;;;;;;;14.21;67.68;101541.13;4961719;28;120077;-73
2022/10/17 03:21:08;;;;;;;25.70;5.97;;;;;;;14.23;67.66;101538.66;4951142;28;119990;-73
2022/10/17 03:23:35;;;;;;;22.75;6.20;;;;;;;14.30;67.71;101546.66;4958187;28;120397;-73
2022/10/17 03:26:04;;;;;;;22.98;5.68;;;;;;;14.28;67.91;101535.31;4955894;28;119764;-73
2022/10/17 03:28:30;;;;;;;23.00;5.85;;;;;;;14.39;68.68;101538.41;4967348;28;119954;-72
2022/10/17 03:30:56;;;;;;;25.27;6.37;;;;;;;14.46;68.29;101532.63;4957439;28;119605;-73
2022/10/17 03:33:22;;;;;;;29.03;6.83;;;;;;;14.48;68.89;101521.13;4959380;28;119791;-73
2022/10/17 03:35:48;;;;;;;27.87;6.63;;;;;;;14.57;69.05;101524.69;4939739;28;122504;-73
2022/10/17 03:38:13;;;;;;;28.33;6.60;;;;;;;14.65;68.98;101506.56;4943306;28;120688;-73
2022/10/17 03:40:40;;;;;;;26.03;6.17;;;;;;;14.73;69.00;101516.13;4960403;28;119871;-73
2022/10/17 03:43:06;;;;;;;24.93;6.27;;;;;;;14.80;68.81;101526.09;4951048;28;120351;-73
2022/10/17 03:45:31;;;;;;;27.47;5.90;;;;;;;14.87;68.70;101527.78;4954403;28;120043;-73
2022/10/17 03:47:58;;;;;;;24.50;6.03;;;;;;;14.93;68.66;101523.19;4963948;28;120143;-73
2022/10/17 03:50:24;;;;;;;27.30;6.00;;;;;;;14.95;68.34;101529.03;4946620;28;120312;-73
2022/10/17 03:52:50;;;;;;;26.53;6.03;;;;;;;15.02;68.42;101528.72;4946130;28;120001;-73
2022/10/17 03:55:16;;;;;;;27.70;6.55;;;;;;;15.05;68.46;101525.03;4936093;28;119846;-73
2022/10/17 03:57:43;;;;;;;25.90;6.50;;;;;;;15.10;68.45;101532.69;4951052;28;120068;-73
2022/10/17 04:00:10;;;;;;;21.42;5.97;;;;;;;15.16;68.11;101530.88;4960546;28;120149;-73
2022/10/17 04:02:48;;;;;;;26.23;6.07;;;;;;;15.20;67.79;101536.22;4938899;28;121247;-73
2022/10/17 04:05:17;;;;;;;25.23;6.18;;;;;;;15.24;67.93;101536.84;4976520;28;119783;-74
2022/10/17 04:07:43;;;;;;;23.92;5.95;;;;;;;15.26;67.92;101537.91;4930535;28;119741;-73
2022/10/17 04:10:09;;;;;;;27.40;6.18;;;;;;;15.25;68.01;101517.03;4935739;28;121812;-73
2022/10/17 04:12:35;;;;;;;27.17;6.13;;;;;;;15.31;67.94;101511.66;4955417;28;119888;-73
2022/10/17 04:15:01;;;;;;;25.13;6.07;;;;;;;15.34;67.63;101507.94;4950990;28;119476;-73
2022/10/17 04:17:30;;;;;;;26.33;6.35;;;;;;;15.38;68.05;101489.22;4950709;28;121065;-73
2022/10/17 04:19:59;;;;;;;20.88;5.38;;;;;;;15.39;67.84;101487.22;4954631;28;120223;-73
2022/10/17 04:22:25;;;;;;;22.60;5.17;;;;;;;15.45;67.72;101485.38;4950955;28;119579;-73
2022/10/17 04:24:51;;;;;;;25.30;5.60;;;;;;;15.48;67.62;101478.91;4960806;28;120282;-73
2022/10/17 04:27:32;;;;;;;24.75;5.30;;;;;;;15.51;67.57;101484.25;4936913;28;120328;-73
2022/10/17 04:30:00;;;;;;;26.27;5.22;;;;;;;15.55;67.71;101475.81;4941250;28;119541;-73
2022/10/17 04:32:26;;;;;;;21.63;5.13;;;;;;;15.57;68.06;101478.88;4948653;28;120168;-73
2022/10/17 04:35:02;;;;;;;22.93;4.53;;;;;;;15.59;67.82;101481.97;4947805;28;120019;-73
2022/10/17 04:37:29;;;;;;;22.77;4.85;;;;;;;15.63;67.73;101483.34;4953015;28;120019;-73
2022/10/17 04:39:55;;;;;;;22.50;4.88;;;;;;;15.63;67.80;101488.88;4963821;28;119903;-73
2022/10/17 04:42:21;;;;;;;20.80;4.33;;;;;;;15.65;67.36;101482.88;4943119;28;119879;-73
2022/10/17 04:44:47;;;;;;;21.10;4.35;;;;;;;15.65;67.83;101466.28;4951384;28;119641;-73
2022/10/17 04:47:31;;;;;;;21.93;4.40;;;;;;;15.74;67.69;101463.47;4969024;28;119503;-73
2022/10/17 04:49:57;;;;;;;21.60;4.60;;;;;;;15.78;67.25;101461.31;4972655;28;119378;-73
2022/10/17 04:52:24;;;;;;;22.40;4.73;;;;;;;15.82;67.38;101467.44;4960602;28;120208;-73
2022/10/17 04:54:50;;;;;;;18.40;4.28;;;;;;;15.82;67.28;101464.66;4933604;28;119963;-73
2022/10/17 04:57:27;;;;;;;21.83;4.50;;;;;;;15.84;67.35;101470.50;4954985;28;119605;-72
2022/10/17 05:00:03;;;;;;;19.50;4.10;;;;;;;15.88;67.36;101470.34;4948507;28;120226;-73
2022/10/17 05:02:50;;;;;;;19.77;4.07;;;;;;;15.92;67.27;101479.25;4950696;28;119889;-73
2022/10/17 05:05:24;;;;;;;17.75;4.25;;;;;;;15.94;67.55;101479.53;4967820;28;119361;-73
2022/10/17 05:07:52;;;;;;;16.92;4.35;;;;;;;15.97;67.11;101481.38;4970809;28;119850;-73
2022/10/17 05:10:21;;;;;;;18.40;4.33;;;;;;;15.98;67.17;101476.59;4959355;28;119658;-73
2022/10/17 05:12:52;;;;;;;17.27;4.23;;;;;;;16.06;67.42;101477.78;4956794;28;120591;-73
2022/10/17 05:15:20;;;;;;;17.90;4.20;;;;;;;16.08;67.09;101475.31;4951940;28;119943;-73
2022/10/17 05:17:46;;;;;;;17.03;4.30;;;;;;;16.11;66.92;101466.84;4951391;28;119745;-73
2022/10/17 05:20:12;;;;;;;18.20;4.37;;;;;;;16.14;67.03;101468.69;4960948;28;119892;-73
2022/10/17 05:22:39;;;;;;;19.88;4.30;;;;;;;16.15;66.75;101461.16;4971762;28;120003;-73
2022/10/17 05:25:05;;;;;;;18.85;5.20;;;;;;;16.19;67.04;101458.97;4951134;28;120954;-73
2022/10/17 05:27:32;;;;;;;21.70;4.80;;;;;;;16.19;66.80;101443.13;4954884;28;120441;-73
2022/10/17 05:29:58;;;;;;;17.73;4.53;;;;;;;16.20;67.17;101454.97;4949984;28;119594;-74
2022/10/17 05:32:28;;;;;;;16.25;3.83;;;;;;;16.25;66.62;101457.06;4937044;28;119374;-74
2022/10/17 05:34:54;;;;;;;17.27;4.43;;;;;;;16.26;66.63;101450.31;4951384;28;119637;-73
2022/10/17 05:37:22;;;;;;;18.35;3.83;;;;;;;16.28;66.66;101454.13;4936111;28;119777;-73
2022/10/17 05:40:13;;;;;;;17.40;4.10;;;;;;;16.30;66.46;101450.88;4945520;28;120058;-73
2022/10/17 05:42:45;;;;;;;16.88;3.95;;;;;;;16.28;66.15;101451.34;4944871;28;119485;-73
2022/10/17 05:45:11;;;;;;;18.40;4.72;;;;;;;16.27;66.42;101438.00;4947403;28;120426;-73
2022/10/17 05:47:37;;;;;;;16.80;4.85;;;;;;;16.24;66.45;101438.94;4950365;28;119732;-73
2022/10/17 05:50:03;;;;;;;15.82;5.10;;;;;;;16.22;66.91;101427.56;4934141;28;120375;-73
2022/10/17 05:52:40;;;;;;;19.37;4.57;;;;;;;16.21;66.59;101420.50;4946573;28;119887;-74
2022/10/17 05:55:10;;;;;;;16.60;4.80;;;;;;;16.20;66.80;101416.22;4947470;28;119686;-73
2022/10/17 05:57:35;;;;;;;20.45;4.68;;;;;;;16.17;67.17;101403.31;4943339;28;121189;-73
2022/10/17 06:00:05;;;;;;;17.98;4.55;;;;;;;16.16;67.07;101399.00;4958059;28;119916;-75
2022/10/17 06:02:42;;;;;;;18.58;4.38;;;;;;;16.22;67.15;101403.41;4969699;28;119929;-73
2022/10/17 06:05:11;;;;;;;16.88;4.70;;;;;;;16.20;67.27;101399.59;4947413;28;119758;-73
2022/10/17 06:07:36;;;;;;;16.50;4.32;;;;;;;16.24;67.24;101397.41;4934146;28;119884;-72
2022/10/17 06:10:03;;;;;;;15.45;4.05;;;;;;;16.28;67.00;101414.59;4951722;28;119660;-72
2022/10/17 06:12:29;;;;;;;15.60;4.17;;;;;;;16.31;66.71;101421.19;4946888;28;120040;-73
2022/10/17 06:14:55;;;;;;;11.97;4.20;;;;;;;16.27;67.14;101411.06;4948216;28;119837;-73
2022/10/17 06:17:21;;;;;;;13.53;4.47;;;;;;;16.30;66.93;101412.13;4964305;28;119387;-73
2022/10/17 06:19:47;;;;;;;14.98;4.22;;;;;;;16.39;66.72;101416.84;4965431;28;119935;-73
2022/10/17 06:22:14;;;;;;;13.68;3.35;;;;;;;16.40;66.86;101413.59;4949580;28;119882;-73
2022/10/17 06:24:41;;;;;;;14.57;3.97;;;;;;;16.40;66.78;101410.84;4952167;28;119519;-73
2022/10/17 06:27:07;;;;;;;14.60;4.30;;;;;;;16.43;66.79;101412.66;4966095;28;120279;-73
2022/10/17 06:29:33;;;;;;;10.55;3.80;;;;;;;16.45;67.04;101403.88;4965962;28;119642;-73
2022/10/17 06:32:00;;;;;;;12.23;3.83;;;;;;;16.49;66.85;101412.75;4946087;28;119943;-73
2022/10/17 06:34:26;;;;;;;12.82;3.88;;;;;;;16.50;66.87;101411.53;4947874;28;119549;-73
2022/10/17 06:36:52;;;;;;;11.73;3.80;;;;;;;16.53;66.62;101427.19;4948730;28;120447;-73
2022/10/17 06:39:19;;;;;;;10.50;3.40;;;;;;;16.55;66.45;101427.47;4948702;28;119697;-73
2022/10/17 06:42:02;;;;;;;12.30;3.85;;;;;;;16.61;66.38;101427.59;4933065;28;119707;-73
2022/10/17 06:44:46;;;;;;;14.35;4.10;;;;;;;16.66;66.73;101429.72;4963943;28;119917;-73
2022/10/17 06:47:37;;;;;;;16.35;4.15;;;;;;;16.68;66.81;101427.25;4930516;28;119815;-74
2022/10/17 06:50:15;;;;;;;13.85;4.10;;;;;;;16.72;66.87;101427.84;4949108;28;120192;-73
2022/10/17 06:52:50;;;;;;;11.27;3.80;;;;;;;16.76;66.59;101423.63;4948463;28;120481;-73
2022/10/17 06:55:34;;;;;;;13.82;4.22;;;;;;;16.78;66.87;101414.84;4968031;28;120038;-73
2022/10/17 06:58:14;;;;;;;14.07;4.35;;;;;;;16.84;66.67;101418.50;4967029;28;120231;-73
2022/10/17 07:01:11;;;;;;;12.32;3.53;;;;;;;16.95;66.94;101435.31;4948374;28;119736;-73
2022/10/17 07:03:37;;;;;;;12.23;3.90;;;;;;;17.00;66.88;101423.56;4967389;28;120056;-73
2022/10/17 07:06:03;;;;;;;10.82;3.60;;;;;;;17.13;66.96;101426.06;4934408;28;120064;-72
2022/10/17 07:08:30;;;;;;;11.40;3.47;;;;;;;17.20;66.13;101422.91;4950523;28;119639;-73
2022/10/17 07:11:08;;;;;;;11.40;3.53;;;;;;;17.29;66.96;101425.59;4955192;28;119571;-73
2022/10/17 07:13:33;;;;;;;10.65;3.67;;;;;;;17.35;66.25;101442.31;4932541;28;120374;-73
2022/10/17 07:16:00;;;;;;;10.30;3.20;;;;;;;17.39;66.02;101442.91;4955246;28;119636;-73
2022/10/17 07:18:28;;;;;;;15.25;4.10;;;;;;;17.42;65.97;101430.84;4950573;28;119460;-73
2022/10/17 07:20:54;;;;;;;11.93;3.60;;;;;;;17.42;65.81;101423.28;4952846;28;119924;-73
2022/10/17 07:23:21;;;;;;;10.65;3.58;;;;;;;17.44;65.80;101406.91;4950683;28;120300;-73
2022/10/17 07:25:48;;;;;;;11.02;3.83;;;;;;;17.54;65.83;101417.91;4949988;28;119655;-74
2022/10/17 07:28:16;;;;;;;11.48;3.70;;;;;;;17.56;65.76;101413.41;4949845;28;120140;-73
2022/10/17 07:30:43;;;;;;;11.00;3.80;;;;;;;17.62;65.93;101413.50;4935014;28;120056;-72
2022/10/17 07:33:11;;;;;;;9.67;3.53;;;;;;;17.68;65.32;101417.91;4954546;28;120313;-73
2022/10/17 07:35:39;;;;;;;8.00;3.33;;;;;;;17.74;65.53;101409.66;4952176;28;120318;-73
2022/10/17 07:38:06;;;;;;;9.50;3.75;;;;;;;17.76;65.46;101405.19;4966572;28;120029;-74
2022/10/17 07:40:31;;;;;;;10.70;3.72;;;;;;;17.76;65.26;101380.22;4936339;28;119556;-73
2022/10/17 07:42:57;;;;;;;8.50;3.58;;;;;;;17.84;65.35;101379.78;4948353;28;119648;-73
2022/10/17 07:45:26;;;;;;;8.00;3.53;;;;;;;17.91;65.43;101384.94;4950581;28;119873;-73
2022/10/17 07:47:58;;;;;;;10.02;3.67;;;;;;;17.97;65.72;101394.09;4952173;28;120043;-73
2022/10/17 07:50:24;;;;;;;10.23;3.42;;;;;;;18.03;65.04;101398.47;4970291;28;119614;-73
2022/10/17 07:52:50;;;;;;;7.43;3.40;;;;;;;18.08;65.38;101388.69;4954709;28;119871;-73
2022/10/17 07:55:16;;;;;;;8.37;3.40;;;;;;;18.12;64.89;101385.69;4949918;28;120542;-73
2022/10/17 07:57:44;;;;;;;8.63;3.50;;;;;;;18.14;64.96;101389.50;4965965;28;119900;-73
2022/10/17 08:00:11;;;;;;;8.97;3.43;;;;;;;18.15;64.93;101396.59;4967555;28;120064;-73
2022/10/17 08:02:40;;;;;;;7.80;3.53;;;;;;;18.16;64.78;101394.59;4965237;28;119961;-73
2022/10/17 08:05:06;;;;;;;7.43;3.67;;;;;;;18.14;65.07;101391.53;4950247;28;120134;-73
2022/10/17 08:07:34;;;;;;;8.43;3.50;;;;;;;18.16;64.94;101398.13;4966701;28;119718;-73
2022/10/17 08:10:00;;;;;;;6.85;3.47;;;;;;;18.20;64.94;101403.47;4964244;28;119871;-73
2022/10/17 08:12:25;;;;;;;9.05;4.03;;;;;;;18.21;65.00;101413.31;4964108;28;120013;-73
2022/10/17 08:14:51;;;;;;;8.57;3.72;;;;;;;18.20;64.98;101403.47;4951421;28;120104;-74
2022/10/17 08:17:17;;;;;;;8.43;3.63;;;;;;;18.18;65.08;101386.53;4967895;28;119565;-73
2022/10/17 08:19:42;;;;;;;8.77;3.78;;;;;;;18.23;65.24;101386.63;4965732;28;121486;-73
2022/10/17 08:22:08;;;;;;;7.22;3.70;;;;;;;18.25;64.92;101381.34;4949036;28;120202;-73
2022/10/17 08:24:34;;;;;;;6.25;3.30;;;;;;;18.29;65.00;101376.34;4968385;28;120060;-73
2022/10/17 08:27:00;;;;;;;8.52;3.33;;;;;;;18.36;65.16;101384.25;4965604;28;120125;-73
2022/10/17 08:29:26;;;;;;;5.45;3.33;;;;;;;18.43;65.13;101396.94;4966236;28;120055;-73
2022/10/17 08:31:52;;;;;;;7.43;3.67;;;;;;;18.51;65.18;101400.06;4966263;28;119658;-73
2022/10/17 08:34:17;;;;;;;8.80;3.70;;;;;;;18.56;64.73;101391.03;4950668;28;123009;-73
2022/10/17 08:36:43;;;;;;;7.23;3.63;;;;;;;18.59;64.71;101384.47;4971592;28;120360;-74
2022/10/17 08:39:09;;;;;;;8.17;3.30;;;;;;;18.63;64.70;101371.16;4949030;28;120966;-73
2022/10/17 08:41:52;;;;;;;9.03;3.67;;;;;;;18.66;64.52;101361.84;4966236;28;119468;-73
2022/10/17 08:44:38;;;;;;;8.57;3.60;;;;;;;18.69;64.70;101353.31;4965451;28;120056;-73
2022/10/17 08:47:28;;;;;;;6.45;3.42;;;;;;;18.72;64.58;101346.00;4946985;28;120182;-72
2022/10/17 08:50:02;;;;;;;8.38;3.92;;;;;;;18.76;64.66;101332.66;4963240;28;120336;-73
2022/10/17 08:53:07;;;;;;;7.67;4.00;;;;;;;18.85;64.71;101337.25;4964167;28;119573;-73
2022/10/17 08:55:44;;;;;;;8.98;3.78;;;;;;;18.94;64.18;101326.75;4964413;28;121287;-73
2022/10/17 08:58:19;;;;;;;7.78;3.80;;;;;;;18.97;64.02;101317.44;4963659;28;119719;-73
2022/10/17 09:00:54;;;;;;;9.55;4.20;;;;;;;19.01;64.09;101309.63;4966049;28;120114;-73
2022/10/17 09:04:05;;;;;;;8.55;4.10;;;;;;;19.06;64.07;101316.47;4946442;28;122582;-73
2022/10/17 09:06:37;;;;;;;8.10;3.90;;;;;;;19.08;63.85;101316.72;4963360;28;119522;-73
2022/10/17 09:09:15;;;;;;;6.20;4.13;;;;;;;19.08;63.69;101321.53;4962758;28;120101;-73
2022/10/17 09:12:10;;;;;;;6.43;4.07;;;;;;;19.09;63.98;101325.84;4960029;28;120112;-73
2022/10/17 09:15:13;;;;;;;7.93;4.00;;;;;;;19.14;64.16;101339.00;4944104;28;119764;-73
2022/10/17 09:17:51;;;;;;;7.40;4.10;;;;;;;19.18;64.24;101345.13;4945302;28;120035;-72
2022/10/17 09:20:52;;;;;;;6.75;3.92;;;;;;;19.23;64.06;101334.03;4963433;28;120331;-74
2022/10/17 09:23:30;;;;;;;6.45;4.00;;;;;;;19.28;64.01;101333.31;4962921;28;120363;-73
2022/10/17 09:25:59;;;;;;;6.30;3.80;;;;;;;19.34;64.36;101344.47;4964496;28;120516;-73
2022/10/17 09:28:32;;;;;;;6.90;4.10;;;;;;;19.40;64.45;101333.38;4946437;28;119707;-73
2022/10/17 09:31:05;;;;;;;9.27;3.90;;;;;;;19.49;64.30;101322.84;4962192;28;120065;-73
2022/10/17 09:33:43;;;;;;;7.37;3.70;;;;;;;19.57;63.93;101321.13;4962593;28;120445;-73
2022/10/17 09:36:19;;;;;;;7.10;3.55;;;;;;;19.47;64.27;101317.00;4963462;28;120074;-73
2022/10/17 09:38:51;;;;;;;7.13;3.70;;;;;;;19.49;64.45;101319.28;4964130;28;120209;-73
2022/10/17 09:41:29;;;;;;;7.63;4.38;;;;;;;19.47;64.48;101314.22;4965073;28;119865;-73
2022/10/17 09:43:56;;;;;;;11.85;4.43;;;;;;;19.50;64.91;101313.22;4963661;28;120000;-72
2022/10/17 09:46:34;;;;;;;8.40;4.28;;;;;;;19.59;64.97;101320.63;4963413;28;120340;-79
2022/10/17 09:49:18;;;;;;;8.90;4.28;;;;;;;19.62;65.02;101316.84;4963205;28;119649;-75
2022/10/17 09:51:44;;;;;;;;;;;;;;;19.58;64.57;101314.31;4964135;28;119435;-78
2022/10/17 09:54:23;;;;;;;10.00;4.80;;;;;;;19.58;65.03;101319.09;4976727;28;119707;-80
2022/10/17 09:56:58;;;;;;;6.03;4.20;;;;;;;19.52;64.81;101319.06;4967171;28;119681;-73
2022/10/17 09:59:31;;;;;;;6.72;4.32;;;;;;;19.54;65.28;101324.16;4959921;28;120193;-74
2022/10/17 10:02:28;;;;;;;8.87;4.83;;;;;;;19.55;65.54;101332.00;4955739;28;119601;-74
2022/10/17 10:04:57;;;;;;;12.55;5.13;;;;;;;19.60;65.75;101344.41;4917708;28;121413;-74
2022/10/17 10:07:24;;;;;;;6.93;4.95;;;;;;;19.65;65.51;101354.06;4946631;28;122168;-74
2022/10/17 10:09:54;;;;;;;11.35;5.13;;;;;;;19.66;65.59;101352.81;4966535;28;119892;-74
2022/10/17 10:12:29;;;;;;;6.55;5.03;;;;;;;19.68;65.62;101347.50;4961183;28;120616;-73
2022/10/17 10:15:00;;;;;;;8.35;5.85;;;;;;;19.73;65.75;101347.53;4963943;28;120010;-74
2022/10/17 10:17:32;;;;;;;14.60;5.32;;;;;;;19.77;65.34;101355.66;4964794;28;120035;-74
2022/10/17 10:19:58;;;;;;;10.52;4.90;;;;;;;19.77;65.62;101359.19;4963137;28;119946;-73
2022/10/17 10:22:24;;;;;;;9.18;5.57;;;;;;;19.79;65.73;101350.34;4963527;28;120145;-73
2022/10/17 10:25:16;;;;;;;8.50;5.10;;;;;;;19.81;65.53;101331.88;4962233;28;119908;-74
2022/10/17 10:27:44;;;;;;;9.25;5.82;;;;;;;19.87;65.81;101343.81;4949044;28;119725;-73
2022/10/17 10:30:18;;;;;;;7.50;5.55;;;;;;;19.91;65.88;101351.94;4967274;28;119596;-74
2022/10/17 10:32:46;;;;;;;9.02;6.40;;;;;;;19.97;66.00;101338.03;4970774;28;120105;-74
2022/10/17 10:35:22;;;;;;;11.77;6.30;;;;;;;20.06;66.37;101344.13;4962610;28;119811;-74
2022/10/17 10:37:54;;;;;;;7.75;6.35;;;;;;;20.15;66.35;101343.94;4963815;28;119711;-76
2022/10/17 10:40:25;;;;;;;7.93;6.03;;;;;;;20.29;66.09;101352.56;4948962;28;120916;-74
2022/10/17 10:42:55;;;;;;;7.75;6.43;;;;;;;20.39;65.88;101346.28;4966017;28;119783;-73
2022/10/17 10:45:38;;;;;;;8.70;5.90;;;;;;;20.48;65.99;101343.28;4966689;28;120245;-74
2022/10/17 10:48:31;;;;;;;9.52;6.32;;;;;;;20.60;65.78;101343.31;4965053;28;119762;-74
2022/10/17 10:51:38;;;;;;;14.75;7.10;;;;;;;20.68;65.27;101338.75;4968094;28;119753;-73
2022/10/17 10:54:13;;;;;;;9.20;5.70;;;;;;;20.75;64.88;101349.41;4931154;28;120375;-73
2022/10/17 10:56:42;;;;;;;10.57;6.20;;;;;;;20.82;64.95;101349.69;4936722;28;121052;-73
2022/10/17 10:59:29;;;;;;;11.95;6.72;;;;;;;20.88;64.87;101357.28;4965416;28;120350;-74
2022/10/17 11:02:16;;;;;;;7.10;5.25;;;;;;;20.89;64.68;101353.22;4963310;28;120169;-74
2022/10/17 11:05:12;;;;;;;11.02;6.97;;;;;;;20.91;64.91;101361.84;4966879;28;120652;-74
2022/10/17 11:08:07;;;;;;;10.65;6.57;;;;;;;20.97;64.97;101382.13;4969376;28;120132;-73
2022/10/17 11:10:33;;;;;;;13.23;7.30;;;;;;;21.00;64.89;101397.84;4947343;28;120447;-74
2022/10/17 11:13:27;;;;;;;9.32;7.15;;;;;;;20.97;64.87;101410.75;4967337;28;119738;-74
2022/10/17 11:15:58;;;;;;;11.30;7.43;;;;;;;20.96;64.90;101416.84;4964708;28;119875;-73
2022/10/17 11:18:34;;;;;;;13.55;7.60;;;;;;;20.92;64.98;101394.03;4963411;28;121270;-74
2022/10/17 11:21:09;;;;;;;9.95;7.43;;;;;;;20.88;65.02;101401.91;4969991;28;120332;-74
2022/10/17 11:23:43;;;;;;;12.43;7.28;;;;;;;20.84;65.45;101400.13;4964352;28;119749;-74
2022/10/17 11:26:25;;;;;;;9.75;7.40;;;;;;;20.86;65.54;101412.78;4968152;28;120240;-74
2022/10/17 11:28:56;;;;;;;13.90;7.75;;;;;;;20.83;65.47;101418.13;4965249;28;119731;-74
2022/10/17 11:31:25;;;;;;;12.63;8.80;;;;;;;20.79;65.59;101417.56;4962936;28;120092;-74
2022/10/17 11:33:58;;;;;;;11.45;7.60;;;;;;;20.75;65.93;101419.09;4963858;28;119605;-73
2022/10/17 11:36:31;;;;;;;12.17;8.80;;;;;;;20.71;65.99;101413.00;4966814;28;120154;-74